sensor_id;sensor_type;location;lat;lon;timestamp;P1;durP1;ratioP1;P2;durP2;ratioP2
13493;SDS011;6819;50.886;4.332;2023-08-12T00:00:28;8.90;;;4.15;;
13493;SDS011;6819;50.886;4.332;2023-08-12T00:02:54;14.50;;;4.18;;
13493;SDS011;6819;50.886;4.332;2023-08-12T00:05:21;13.80;;;4.43;;
13493;SDS011;6819;50.886;4.332;2023-08-12T00:07:47;10.60;;;4.50;;
13493;SDS011;6819;50.886;4.332;2023-08-12T00:10:14;8.90;;;3.55;;
13493;SDS011;6819;50.886;4.332;2023-08-12T00:12:40;6.22;;;3.33;;
13493;SDS011;6819;50.886;4.332;2023-08-12T00:15:07;7.55;;;3.53;;
13493;SDS011;6819;50.886;4.332;2023-08-12T00:17:33;9.18;;;3.70;;
13493;SDS011;6819;50.886;4.332;2023-08-12T00:20:02;9.10;;;3.92;;
13493;SDS011;6819;50.886;4.332;2023-08-12T00:22:30;6.78;;;3.60;;
13493;SDS011;6819;50.886;4.332;2023-08-12T00:24:56;8.75;;;4.57;;
13493;SDS011;6819;50.886;4.332;2023-08-12T00:27:22;6.70;;;3.42;;
13493;SDS011;6819;50.886;4.332;2023-08-12T00:29:48;8.10;;;4.05;;
13493;SDS011;6819;50.886;4.332;2023-08-12T00:32:14;8.32;;;4.03;;
13493;SDS011;6819;50.886;4.332;2023-08-12T00:34:40;6.90;;;4.00;;
13493;SDS011;6819;50.886;4.332;2023-08-12T00:37:06;15.88;;;4.90;;
13493;SDS011;6819;50.886;4.332;2023-08-12T00:39:32;8.85;;;4.70;;
13493;SDS011;6819;50.886;4.332;2023-08-12T00:41:58;8.43;;;4.22;;
13493;SDS011;6819;50.886;4.332;2023-08-12T00:44:24;10.40;;;4.10;;
13493;SDS011;6819;50.886;4.332;2023-08-12T00:46:50;9.30;;;4.05;;
13493;SDS011;6819;50.886;4.332;2023-08-12T00:49:17;13.38;;;4.30;;
13493;SDS011;6819;50.886;4.332;2023-08-12T00:51:43;6.32;;;3.88;;
13493;SDS011;6819;50.886;4.332;2023-08-12T00:54:13;9.90;;;4.00;;
13493;SDS011;6819;50.886;4.332;2023-08-12T00:56:39;9.73;;;4.57;;
13493;SDS011;6819;50.886;4.332;2023-08-12T00:59:07;7.03;;;4.20;;
13493;SDS011;6819;50.886;4.332;2023-08-12T01:01:34;11.07;;;4.00;;
13493;SDS011;6819;50.886;4.332;2023-08-12T01:04:00;11.85;;;5.00;;
13493;SDS011;6819;50.886;4.332;2023-08-12T01:06:26;12.30;;;4.78;;
13493;SDS011;6819;50.886;4.332;2023-08-12T01:08:52;10.70;;;3.90;;
13493;SDS011;6819;50.886;4.332;2023-08-12T01:16:31;17.10;;;5.18;;
13493;SDS011;6819;50.886;4.332;2023-08-12T01:19:00;11.98;;;5.13;;
13493;SDS011;6819;50.886;4.332;2023-08-12T01:21:27;9.57;;;5.20;;
13493;SDS011;6819;50.886;4.332;2023-08-12T01:23:55;16.67;;;4.75;;
13493;SDS011;6819;50.886;4.332;2023-08-12T01:26:21;14.68;;;4.63;;
13493;SDS011;6819;50.886;4.332;2023-08-12T01:28:47;9.02;;;4.28;;
13493;SDS011;6819;50.886;4.332;2023-08-12T01:31:23;12.38;;;4.57;;
13493;SDS011;6819;50.886;4.332;2023-08-12T01:34:12;11.13;;;4.72;;
13493;SDS011;6819;50.886;4.332;2023-08-12T01:36:40;13.50;;;4.88;;
13493;SDS011;6819;50.886;4.332;2023-08-12T01:39:08;9.65;;;4.30;;
13493;SDS011;6819;50.886;4.332;2023-08-12T01:41:35;10.73;;;5.10;;
13493;SDS011;6819;50.886;4.332;2023-08-12T01:44:02;9.32;;;4.30;;
13493;SDS011;6819;50.886;4.332;2023-08-12T01:46:28;11.40;;;4.47;;
13493;SDS011;6819;50.886;4.332;2023-08-12T01:48:54;8.57;;;4.75;;
13493;SDS011;6819;50.886;4.332;2023-08-12T01:51:20;11.80;;;5.57;;
13493;SDS011;6819;50.886;4.332;2023-08-12T01:53:46;11.82;;;5.20;;
13493;SDS011;6819;50.886;4.332;2023-08-12T01:56:12;11.13;;;5.05;;
13493;SDS011;6819;50.886;4.332;2023-08-12T01:58:38;10.27;;;5.45;;
13493;SDS011;6819;50.886;4.332;2023-08-12T02:01:04;16.10;;;5.28;;
13493;SDS011;6819;50.886;4.332;2023-08-12T02:03:30;9.95;;;5.95;;
13493;SDS011;6819;50.886;4.332;2023-08-12T02:05:56;13.52;;;5.57;;
13493;SDS011;6819;50.886;4.332;2023-08-12T02:08:22;13.88;;;5.63;;
13493;SDS011;6819;50.886;4.332;2023-08-12T02:10:48;10.77;;;5.40;;
13493;SDS011;6819;50.886;4.332;2023-08-12T02:13:14;9.50;;;5.47;;
13493;SDS011;6819;50.886;4.332;2023-08-12T02:15:40;10.75;;;5.97;;
13493;SDS011;6819;50.886;4.332;2023-08-12T02:18:06;14.45;;;5.75;;
13493;SDS011;6819;50.886;4.332;2023-08-12T02:20:32;18.75;;;7.40;;
13493;SDS011;6819;50.886;4.332;2023-08-12T02:22:58;14.35;;;5.85;;
13493;SDS011;6819;50.886;4.332;2023-08-12T02:25:24;17.17;;;6.32;;
13493;SDS011;6819;50.886;4.332;2023-08-12T02:27:50;12.57;;;5.90;;
13493;SDS011;6819;50.886;4.332;2023-08-12T02:30:16;14.65;;;6.13;;
13493;SDS011;6819;50.886;4.332;2023-08-12T02:32:43;13.73;;;6.15;;
13493;SDS011;6819;50.886;4.332;2023-08-12T02:35:09;14.30;;;5.85;;
13493;SDS011;6819;50.886;4.332;2023-08-12T02:37:35;8.57;;;5.75;;
13493;SDS011;6819;50.886;4.332;2023-08-12T02:40:01;14.45;;;6.35;;
13493;SDS011;6819;50.886;4.332;2023-08-12T02:42:29;10.25;;;6.28;;
13493;SDS011;6819;50.886;4.332;2023-08-12T02:44:55;11.65;;;5.60;;
13493;SDS011;6819;50.886;4.332;2023-08-12T02:47:21;11.63;;;6.10;;
13493;SDS011;6819;50.886;4.332;2023-08-12T02:49:47;10.00;;;5.80;;
13493;SDS011;6819;50.886;4.332;2023-08-12T02:52:13;12.43;;;5.80;;
13493;SDS011;6819;50.886;4.332;2023-08-12T02:54:39;14.13;;;5.78;;
13493;SDS011;6819;50.886;4.332;2023-08-12T02:57:05;17.55;;;5.97;;
13493;SDS011;6819;50.886;4.332;2023-08-12T02:59:31;15.18;;;5.70;;
13493;SDS011;6819;50.886;4.332;2023-08-12T03:01:58;10.02;;;5.60;;
13493;SDS011;6819;50.886;4.332;2023-08-12T03:04:24;9.40;;;5.55;;
13493;SDS011;6819;50.886;4.332;2023-08-12T03:06:50;14.23;;;5.90;;
13493;SDS011;6819;50.886;4.332;2023-08-12T03:09:16;9.63;;;5.80;;
13493;SDS011;6819;50.886;4.332;2023-08-12T03:11:43;11.30;;;6.32;;
13493;SDS011;6819;50.886;4.332;2023-08-12T03:14:09;13.40;;;6.50;;
13493;SDS011;6819;50.886;4.332;2023-08-12T03:16:35;8.98;;;5.93;;
13493;SDS011;6819;50.886;4.332;2023-08-12T03:19:01;14.32;;;6.13;;
13493;SDS011;6819;50.886;4.332;2023-08-12T03:21:27;11.13;;;7.03;;
13493;SDS011;6819;50.886;4.332;2023-08-12T03:23:53;13.95;;;6.47;;
13493;SDS011;6819;50.886;4.332;2023-08-12T03:26:19;12.52;;;6.28;;
13493;SDS011;6819;50.886;4.332;2023-08-12T03:28:45;11.45;;;6.90;;
13493;SDS011;6819;50.886;4.332;2023-08-12T03:31:11;11.05;;;6.43;;
13493;SDS011;6819;50.886;4.332;2023-08-12T03:33:37;18.25;;;6.45;;
13493;SDS011;6819;50.886;4.332;2023-08-12T03:36:03;13.25;;;7.00;;
13493;SDS011;6819;50.886;4.332;2023-08-12T03:38:29;14.15;;;6.90;;
13493;SDS011;6819;50.886;4.332;2023-08-12T03:40:55;10.52;;;7.40;;
13493;SDS011;6819;50.886;4.332;2023-08-12T03:43:21;10.43;;;7.40;;
13493;SDS011;6819;50.886;4.332;2023-08-12T03:45:47;11.23;;;6.35;;
13493;SDS011;6819;50.886;4.332;2023-08-12T03:48:13;9.95;;;7.57;;
13493;SDS011;6819;50.886;4.332;2023-08-12T03:50:40;9.35;;;5.65;;
13493;SDS011;6819;50.886;4.332;2023-08-12T03:53:06;6.60;;;4.40;;
13493;SDS011;6819;50.886;4.332;2023-08-12T03:55:33;13.23;;;6.03;;
13493;SDS011;6819;50.886;4.332;2023-08-12T03:58:00;10.25;;;6.20;;
13493;SDS011;6819;50.886;4.332;2023-08-12T04:00:26;8.07;;;5.53;;
13493;SDS011;6819;50.886;4.332;2023-08-12T04:02:52;7.20;;;5.03;;
13493;SDS011;6819;50.886;4.332;2023-08-12T04:05:19;6.90;;;4.82;;
13493;SDS011;6819;50.886;4.332;2023-08-12T04:07:45;8.30;;;5.18;;
13493;SDS011;6819;50.886;4.332;2023-08-12T04:10:11;7.97;;;4.20;;
13493;SDS011;6819;50.886;4.332;2023-08-12T04:12:37;6.05;;;4.57;;
13493;SDS011;6819;50.886;4.332;2023-08-12T04:15:03;8.10;;;4.05;;
13493;SDS011;6819;50.886;4.332;2023-08-12T04:17:30;6.72;;;3.95;;
13493;SDS011;6819;50.886;4.332;2023-08-12T04:19:57;6.82;;;4.32;;
13493;SDS011;6819;50.886;4.332;2023-08-12T04:22:23;5.60;;;3.90;;
13493;SDS011;6819;50.886;4.332;2023-08-12T04:24:49;6.10;;;3.60;;
13493;SDS011;6819;50.886;4.332;2023-08-12T04:27:15;8.10;;;4.15;;
13493;SDS011;6819;50.886;4.332;2023-08-12T04:29:45;5.10;;;4.00;;
13493;SDS011;6819;50.886;4.332;2023-08-12T04:32:11;7.97;;;4.57;;
13493;SDS011;6819;50.886;4.332;2023-08-12T04:34:37;6.40;;;4.70;;
13493;SDS011;6819;50.886;4.332;2023-08-12T04:37:03;7.30;;;4.20;;
13493;SDS011;6819;50.886;4.332;2023-08-12T04:39:29;4.85;;;4.00;;
13493;SDS011;6819;50.886;4.332;2023-08-12T04:41:57;5.65;;;4.32;;
13493;SDS011;6819;50.886;4.332;2023-08-12T04:44:23;8.02;;;4.78;;
13493;SDS011;6819;50.886;4.332;2023-08-12T04:46:49;5.15;;;4.00;;
13493;SDS011;6819;50.886;4.332;2023-08-12T04:49:15;5.22;;;3.78;;
13493;SDS011;6819;50.886;4.332;2023-08-12T04:51:41;4.78;;;3.75;;
13493;SDS011;6819;50.886;4.332;2023-08-12T04:54:07;5.68;;;3.95;;
13493;SDS011;6819;50.886;4.332;2023-08-12T04:56:33;5.00;;;4.45;;
13493;SDS011;6819;50.886;4.332;2023-08-12T04:58:59;4.95;;;4.20;;
13493;SDS011;6819;50.886;4.332;2023-08-12T05:01:25;5.68;;;4.43;;
13493;SDS011;6819;50.886;4.332;2023-08-12T05:03:52;6.65;;;3.75;;
13493;SDS011;6819;50.886;4.332;2023-08-12T05:06:18;6.93;;;3.83;;
13493;SDS011;6819;50.886;4.332;2023-08-12T05:08:44;6.43;;;4.90;;
13493;SDS011;6819;50.886;4.332;2023-08-12T05:11:10;7.43;;;4.88;;
13493;SDS011;6819;50.886;4.332;2023-08-12T05:13:36;8.57;;;5.47;;
13493;SDS011;6819;50.886;4.332;2023-08-12T05:16:02;7.32;;;5.50;;
13493;SDS011;6819;50.886;4.332;2023-08-12T05:18:28;11.07;;;5.72;;
13493;SDS011;6819;50.886;4.332;2023-08-12T05:20:54;8.80;;;6.03;;
13493;SDS011;6819;50.886;4.332;2023-08-12T05:23:20;11.73;;;6.45;;
13493;SDS011;6819;50.886;4.332;2023-08-12T05:25:46;10.35;;;6.10;;
13493;SDS011;6819;50.886;4.332;2023-08-12T05:28:12;8.60;;;6.30;;
13493;SDS011;6819;50.886;4.332;2023-08-12T05:30:38;7.28;;;6.43;;
13493;SDS011;6819;50.886;4.332;2023-08-12T05:33:05;9.02;;;6.00;;
13493;SDS011;6819;50.886;4.332;2023-08-12T05:35:34;9.07;;;6.20;;
13493;SDS011;6819;50.886;4.332;2023-08-12T05:38:00;9.65;;;6.55;;
13493;SDS011;6819;50.886;4.332;2023-08-12T05:40:27;8.18;;;5.93;;
13493;SDS011;6819;50.886;4.332;2023-08-12T05:42:53;8.27;;;6.45;;
13493;SDS011;6819;50.886;4.332;2023-08-12T05:45:19;8.73;;;5.80;;
13493;SDS011;6819;50.886;4.332;2023-08-12T05:47:45;7.40;;;5.88;;
13493;SDS011;6819;50.886;4.332;2023-08-12T05:50:11;8.52;;;6.50;;
13493;SDS011;6819;50.886;4.332;2023-08-12T05:52:37;9.68;;;5.72;;
13493;SDS011;6819;50.886;4.332;2023-08-12T05:55:03;8.57;;;6.07;;
13493;SDS011;6819;50.886;4.332;2023-08-12T05:57:29;10.30;;;6.25;;
13493;SDS011;6819;50.886;4.332;2023-08-12T05:59:55;9.10;;;5.20;;
13493;SDS011;6819;50.886;4.332;2023-08-12T06:02:21;7.85;;;5.05;;
13493;SDS011;6819;50.886;4.332;2023-08-12T06:04:47;9.60;;;5.10;;
13493;SDS011;6819;50.886;4.332;2023-08-12T06:07:13;6.97;;;4.43;;
13493;SDS011;6819;50.886;4.332;2023-08-12T06:09:39;6.63;;;4.85;;
13493;SDS011;6819;50.886;4.332;2023-08-12T06:12:05;7.70;;;4.60;;
13493;SDS011;6819;50.886;4.332;2023-08-12T06:14:31;7.78;;;4.32;;
13493;SDS011;6819;50.886;4.332;2023-08-12T06:16:57;7.68;;;3.92;;
13493;SDS011;6819;50.886;4.332;2023-08-12T06:19:23;10.32;;;4.53;;
13493;SDS011;6819;50.886;4.332;2023-08-12T06:21:49;7.43;;;4.07;;
13493;SDS011;6819;50.886;4.332;2023-08-12T06:24:15;7.10;;;4.55;;
13493;SDS011;6819;50.886;4.332;2023-08-12T06:26:41;6.25;;;3.85;;
13493;SDS011;6819;50.886;4.332;2023-08-12T06:29:07;4.65;;;3.72;;
13493;SDS011;6819;50.886;4.332;2023-08-12T06:31:33;8.10;;;3.70;;
13493;SDS011;6819;50.886;4.332;2023-08-12T06:33:59;9.98;;;4.13;;
13493;SDS011;6819;50.886;4.332;2023-08-12T06:36:26;4.65;;;3.53;;
13493;SDS011;6819;50.886;4.332;2023-08-12T06:38:52;6.07;;;3.45;;
13493;SDS011;6819;50.886;4.332;2023-08-12T06:41:18;4.15;;;3.65;;
13493;SDS011;6819;50.886;4.332;2023-08-12T06:43:44;4.03;;;3.42;;
13493;SDS011;6819;50.886;4.332;2023-08-12T06:46:10;5.28;;;3.28;;
13493;SDS011;6819;50.886;4.332;2023-08-12T06:48:36;4.35;;;3.28;;
13493;SDS011;6819;50.886;4.332;2023-08-12T06:51:02;5.07;;;3.40;;
13493;SDS011;6819;50.886;4.332;2023-08-12T06:53:35;4.15;;;3.20;;
13493;SDS011;6819;50.886;4.332;2023-08-12T06:56:02;4.85;;;3.25;;
13493;SDS011;6819;50.886;4.332;2023-08-12T06:58:28;4.88;;;2.80;;
13493;SDS011;6819;50.886;4.332;2023-08-12T07:00:54;3.83;;;2.72;;
13493;SDS011;6819;50.886;4.332;2023-08-12T07:03:20;4.25;;;3.58;;
13493;SDS011;6819;50.886;4.332;2023-08-12T07:05:46;7.22;;;5.00;;
13493;SDS011;6819;50.886;4.332;2023-08-12T07:08:12;10.07;;;5.30;;
13493;SDS011;6819;50.886;4.332;2023-08-12T07:10:38;8.05;;;5.80;;
13493;SDS011;6819;50.886;4.332;2023-08-12T07:13:04;7.03;;;6.32;;
13493;SDS011;6819;50.886;4.332;2023-08-12T07:15:30;7.85;;;5.93;;
13493;SDS011;6819;50.886;4.332;2023-08-12T07:17:56;7.13;;;5.32;;
13493;SDS011;6819;50.886;4.332;2023-08-12T07:20:23;7.05;;;5.22;;
13493;SDS011;6819;50.886;4.332;2023-08-12T07:22:49;8.00;;;5.40;;
13493;SDS011;6819;50.886;4.332;2023-08-12T07:25:15;8.90;;;5.50;;
13493;SDS011;6819;50.886;4.332;2023-08-12T07:27:41;9.35;;;5.13;;
13493;SDS011;6819;50.886;4.332;2023-08-12T07:30:08;6.75;;;5.45;;
13493;SDS011;6819;50.886;4.332;2023-08-12T07:32:36;7.60;;;5.55;;
13493;SDS011;6819;50.886;4.332;2023-08-12T07:35:02;8.00;;;6.05;;
13493;SDS011;6819;50.886;4.332;2023-08-12T07:37:28;10.40;;;6.07;;
13493;SDS011;6819;50.886;4.332;2023-08-12T07:39:54;8.48;;;6.70;;
13493;SDS011;6819;50.886;4.332;2023-08-12T07:42:20;8.73;;;7.28;;
13493;SDS011;6819;50.886;4.332;2023-08-12T07:44:46;9.93;;;7.20;;
13493;SDS011;6819;50.886;4.332;2023-08-12T07:47:13;8.48;;;6.65;;
13493;SDS011;6819;50.886;4.332;2023-08-12T07:49:40;10.85;;;7.05;;
13493;SDS011;6819;50.886;4.332;2023-08-12T07:52:06;10.25;;;6.38;;
13493;SDS011;6819;50.886;4.332;2023-08-12T07:54:32;9.43;;;7.13;;
13493;SDS011;6819;50.886;4.332;2023-08-12T07:56:58;9.05;;;6.85;;
13493;SDS011;6819;50.886;4.332;2023-08-12T07:59:24;9.32;;;7.95;;
13493;SDS011;6819;50.886;4.332;2023-08-12T08:01:51;9.40;;;7.85;;
13493;SDS011;6819;50.886;4.332;2023-08-12T08:04:17;11.05;;;8.05;;
13493;SDS011;6819;50.886;4.332;2023-08-12T08:06:43;12.90;;;7.10;;
13493;SDS011;6819;50.886;4.332;2023-08-12T08:09:09;10.35;;;6.78;;
13493;SDS011;6819;50.886;4.332;2023-08-12T08:11:35;8.32;;;6.72;;
13493;SDS011;6819;50.886;4.332;2023-08-12T08:14:01;8.18;;;6.45;;
13493;SDS011;6819;50.886;4.332;2023-08-12T08:16:28;13.90;;;7.70;;
13493;SDS011;6819;50.886;4.332;2023-08-12T08:18:54;8.73;;;6.55;;
13493;SDS011;6819;50.886;4.332;2023-08-12T08:21:20;7.25;;;5.72;;
13493;SDS011;6819;50.886;4.332;2023-08-12T08:23:46;6.57;;;5.88;;
13493;SDS011;6819;50.886;4.332;2023-08-12T08:26:12;8.13;;;5.80;;
13493;SDS011;6819;50.886;4.332;2023-08-12T08:28:40;10.73;;;5.28;;
13493;SDS011;6819;50.886;4.332;2023-08-12T08:31:06;7.88;;;5.88;;
13493;SDS011;6819;50.886;4.332;2023-08-12T08:33:32;8.60;;;5.63;;
13493;SDS011;6819;50.886;4.332;2023-08-12T08:35:58;6.72;;;5.25;;
13493;SDS011;6819;50.886;4.332;2023-08-12T08:38:24;8.27;;;5.90;;
13493;SDS011;6819;50.886;4.332;2023-08-12T08:40:50;6.82;;;4.82;;
13493;SDS011;6819;50.886;4.332;2023-08-12T08:43:19;7.70;;;5.40;;
13493;SDS011;6819;50.886;4.332;2023-08-12T08:45:47;9.07;;;5.38;;
13493;SDS011;6819;50.886;4.332;2023-08-12T08:48:13;8.02;;;5.70;;
13493;SDS011;6819;50.886;4.332;2023-08-12T08:50:39;8.45;;;5.72;;
13493;SDS011;6819;50.886;4.332;2023-08-12T08:53:07;10.38;;;5.38;;
13493;SDS011;6819;50.886;4.332;2023-08-12T08:55:33;6.00;;;4.60;;
13493;SDS011;6819;50.886;4.332;2023-08-12T08:57:59;9.13;;;4.53;;
13493;SDS011;6819;50.886;4.332;2023-08-12T09:00:25;6.43;;;3.78;;
13493;SDS011;6819;50.886;4.332;2023-08-12T09:02:52;4.72;;;3.60;;
13493;SDS011;6819;50.886;4.332;2023-08-12T09:05:18;5.65;;;4.10;;
13493;SDS011;6819;50.886;4.332;2023-08-12T09:07:45;7.35;;;4.00;;
13493;SDS011;6819;50.886;4.332;2023-08-12T09:10:12;7.43;;;4.10;;
13493;SDS011;6819;50.886;4.332;2023-08-12T09:12:38;5.15;;;3.22;;
13493;SDS011;6819;50.886;4.332;2023-08-12T09:15:04;7.18;;;3.40;;
13493;SDS011;6819;50.886;4.332;2023-08-12T09:17:31;8.68;;;3.80;;
13493;SDS011;6819;50.886;4.332;2023-08-12T09:19:58;6.75;;;3.38;;
13493;SDS011;6819;50.886;4.332;2023-08-12T09:22:24;6.55;;;3.20;;
13493;SDS011;6819;50.886;4.332;2023-08-12T09:24:57;4.72;;;2.60;;
13493;SDS011;6819;50.886;4.332;2023-08-12T09:27:23;4.43;;;2.35;;
13493;SDS011;6819;50.886;4.332;2023-08-12T09:29:49;7.95;;;2.78;;
13493;SDS011;6819;50.886;4.332;2023-08-12T09:32:19;4.72;;;2.40;;
13493;SDS011;6819;50.886;4.332;2023-08-12T09:34:49;8.18;;;2.60;;
13493;SDS011;6819;50.886;4.332;2023-08-12T09:37:16;4.68;;;2.78;;
13493;SDS011;6819;50.886;4.332;2023-08-12T09:39:42;5.30;;;2.13;;
13493;SDS011;6819;50.886;4.332;2023-08-12T09:42:09;6.88;;;1.90;;
13493;SDS011;6819;50.886;4.332;2023-08-12T09:44:35;3.58;;;2.00;;
13493;SDS011;6819;50.886;4.332;2023-08-12T09:47:01;4.53;;;2.00;;
13493;SDS011;6819;50.886;4.332;2023-08-12T09:49:28;5.80;;;1.73;;
13493;SDS011;6819;50.886;4.332;2023-08-12T09:51:54;5.18;;;2.03;;
13493;SDS011;6819;50.886;4.332;2023-08-12T09:54:21;5.30;;;2.03;;
13493;SDS011;6819;50.886;4.332;2023-08-12T09:56:47;5.30;;;1.88;;
13493;SDS011;6819;50.886;4.332;2023-08-12T09:59:23;5.80;;;1.65;;
13493;SDS011;6819;50.886;4.332;2023-08-12T10:01:50;5.43;;;1.92;;
13493;SDS011;6819;50.886;4.332;2023-08-12T10:04:18;4.50;;;2.00;;
13493;SDS011;6819;50.886;4.332;2023-08-12T10:06:47;6.15;;;2.03;;
13493;SDS011;6819;50.886;4.332;2023-08-12T10:09:15;5.80;;;2.00;;
13493;SDS011;6819;50.886;4.332;2023-08-12T10:11:44;7.72;;;2.13;;
13493;SDS011;6819;50.886;4.332;2023-08-12T10:14:11;3.72;;;1.52;;
13493;SDS011;6819;50.886;4.332;2023-08-12T10:16:37;4.20;;;1.75;;
13493;SDS011;6819;50.886;4.332;2023-08-12T10:19:04;5.75;;;1.50;;
13493;SDS011;6819;50.886;4.332;2023-08-12T10:21:31;6.43;;;2.20;;
13493;SDS011;6819;50.886;4.332;2023-08-12T10:24:00;6.63;;;1.73;;
13493;SDS011;6819;50.886;4.332;2023-08-12T10:26:26;5.70;;;1.75;;
13493;SDS011;6819;50.886;4.332;2023-08-12T10:28:52;4.63;;;1.77;;
13493;SDS011;6819;50.886;4.332;2023-08-12T10:31:19;4.88;;;1.75;;
13493;SDS011;6819;50.886;4.332;2023-08-12T10:33:45;3.78;;;1.70;;
13493;SDS011;6819;50.886;4.332;2023-08-12T10:36:15;7.50;;;2.30;;
13493;SDS011;6819;50.886;4.332;2023-08-12T10:38:44;4.47;;;1.70;;
13493;SDS011;6819;50.886;4.332;2023-08-12T10:43:49;3.80;;;1.58;;
13493;SDS011;6819;50.886;4.332;2023-08-12T10:46:21;4.78;;;1.63;;
13493;SDS011;6819;50.886;4.332;2023-08-12T10:48:55;5.22;;;2.15;;
13493;SDS011;6819;50.886;4.332;2023-08-12T10:53:47;5.13;;;1.73;;
13493;SDS011;6819;50.886;4.332;2023-08-12T10:56:15;5.57;;;1.77;;
13493;SDS011;6819;50.886;4.332;2023-08-12T10:58:44;5.70;;;1.65;;
13493;SDS011;6819;50.886;4.332;2023-08-12T11:01:16;5.30;;;2.00;;
13493;SDS011;6819;50.886;4.332;2023-08-12T11:03:43;5.95;;;1.98;;
13493;SDS011;6819;50.886;4.332;2023-08-12T11:06:10;6.60;;;2.15;;
13493;SDS011;6819;50.886;4.332;2023-08-12T11:08:36;10.57;;;2.15;;
13493;SDS011;6819;50.886;4.332;2023-08-12T11:11:02;4.80;;;1.58;;
13493;SDS011;6819;50.886;4.332;2023-08-12T11:13:28;2.67;;;1.50;;
13493;SDS011;6819;50.886;4.332;2023-08-12T11:16:07;6.20;;;2.03;;
13493;SDS011;6819;50.886;4.332;2023-08-12T11:18:34;7.28;;;1.70;;
13493;SDS011;6819;50.886;4.332;2023-08-12T11:21:01;7.45;;;1.70;;
13493;SDS011;6819;50.886;4.332;2023-08-12T11:23:27;5.13;;;1.63;;
13493;SDS011;6819;50.886;4.332;2023-08-12T11:25:54;7.22;;;2.20;;
13493;SDS011;6819;50.886;4.332;2023-08-12T11:28:20;4.72;;;1.77;;
13493;SDS011;6819;50.886;4.332;2023-08-12T11:30:46;7.43;;;1.88;;
13493;SDS011;6819;50.886;4.332;2023-08-12T11:33:12;3.88;;;1.48;;
13493;SDS011;6819;50.886;4.332;2023-08-12T11:35:38;3.92;;;1.50;;
13493;SDS011;6819;50.886;4.332;2023-08-12T11:38:04;5.57;;;1.70;;
13493;SDS011;6819;50.886;4.332;2023-08-12T11:40:31;7.70;;;1.83;;
13493;SDS011;6819;50.886;4.332;2023-08-12T11:42:58;5.93;;;1.85;;
13493;SDS011;6819;50.886;4.332;2023-08-12T11:45:24;8.68;;;2.42;;
13493;SDS011;6819;50.886;4.332;2023-08-12T11:47:51;7.60;;;1.85;;
13493;SDS011;6819;50.886;4.332;2023-08-12T11:50:23;5.13;;;1.33;;
13493;SDS011;6819;50.886;4.332;2023-08-12T11:52:50;3.75;;;1.70;;
13493;SDS011;6819;50.886;4.332;2023-08-12T11:55:16;11.43;;;1.65;;
13493;SDS011;6819;50.886;4.332;2023-08-12T11:57:43;6.25;;;1.77;;
13493;SDS011;6819;50.886;4.332;2023-08-12T12:00:10;9.07;;;1.85;;
13493;SDS011;6819;50.886;4.332;2023-08-12T12:02:41;6.28;;;1.55;;
13493;SDS011;6819;50.886;4.332;2023-08-12T12:05:08;3.75;;;1.50;;
13493;SDS011;6819;50.886;4.332;2023-08-12T12:07:34;4.95;;;1.55;;
13493;SDS011;6819;50.886;4.332;2023-08-12T12:10:00;8.70;;;2.00;;
13493;SDS011;6819;50.886;4.332;2023-08-12T12:12:26;3.30;;;1.40;;
13493;SDS011;6819;50.886;4.332;2023-08-12T12:14:53;4.80;;;1.70;;
13493;SDS011;6819;50.886;4.332;2023-08-12T12:17:22;5.07;;;1.80;;
13493;SDS011;6819;50.886;4.332;2023-08-12T12:19:55;5.93;;;1.83;;
13493;SDS011;6819;50.886;4.332;2023-08-12T12:22:28;5.93;;;1.90;;
13493;SDS011;6819;50.886;4.332;2023-08-12T12:24:57;5.90;;;1.80;;
13493;SDS011;6819;50.886;4.332;2023-08-12T12:27:23;6.55;;;1.60;;
13493;SDS011;6819;50.886;4.332;2023-08-12T12:29:50;4.65;;;1.42;;
13493;SDS011;6819;50.886;4.332;2023-08-12T12:32:19;3.60;;;1.35;;
13493;SDS011;6819;50.886;4.332;2023-08-12T12:34:46;2.80;;;1.50;;
13493;SDS011;6819;50.886;4.332;2023-08-12T12:37:12;4.53;;;1.65;;
13493;SDS011;6819;50.886;4.332;2023-08-12T12:39:38;3.58;;;1.60;;
13493;SDS011;6819;50.886;4.332;2023-08-12T12:42:05;4.82;;;1.42;;
13493;SDS011;6819;50.886;4.332;2023-08-12T12:44:31;4.28;;;1.65;;
13493;SDS011;6819;50.886;4.332;2023-08-12T12:46:57;2.60;;;1.38;;
13493;SDS011;6819;50.886;4.332;2023-08-12T12:49:23;6.72;;;1.73;;
13493;SDS011;6819;50.886;4.332;2023-08-12T12:51:49;1.92;;;1.30;;
13493;SDS011;6819;50.886;4.332;2023-08-12T12:54:15;4.32;;;1.60;;
13493;SDS011;6819;50.886;4.332;2023-08-12T12:56:41;4.43;;;1.85;;
13493;SDS011;6819;50.886;4.332;2023-08-12T12:59:07;3.15;;;1.60;;
13493;SDS011;6819;50.886;4.332;2023-08-12T13:01:33;5.60;;;1.48;;
13493;SDS011;6819;50.886;4.332;2023-08-12T13:04:00;3.88;;;1.70;;
13493;SDS011;6819;50.886;4.332;2023-08-12T13:06:26;3.13;;;1.63;;
13493;SDS011;6819;50.886;4.332;2023-08-12T13:08:52;4.25;;;1.52;;
13493;SDS011;6819;50.886;4.332;2023-08-12T13:11:18;5.95;;;1.70;;
13493;SDS011;6819;50.886;4.332;2023-08-12T13:13:44;7.53;;;1.80;;
13493;SDS011;6819;50.886;4.332;2023-08-12T13:16:10;4.03;;;1.90;;
13493;SDS011;6819;50.886;4.332;2023-08-12T13:18:36;5.55;;;1.73;;
13493;SDS011;6819;50.886;4.332;2023-08-12T13:21:02;3.40;;;1.83;;
13493;SDS011;6819;50.886;4.332;2023-08-12T13:23:28;6.25;;;2.40;;
13493;SDS011;6819;50.886;4.332;2023-08-12T13:25:54;4.57;;;2.38;;
13493;SDS011;6819;50.886;4.332;2023-08-12T13:28:20;8.38;;;2.35;;
13493;SDS011;6819;50.886;4.332;2023-08-12T13:30:46;3.97;;;2.15;;
13493;SDS011;6819;50.886;4.332;2023-08-12T13:33:12;4.70;;;2.03;;
13493;SDS011;6819;50.886;4.332;2023-08-12T13:35:38;2.78;;;1.90;;
13493;SDS011;6819;50.886;4.332;2023-08-12T13:38:04;7.20;;;2.00;;
13493;SDS011;6819;50.886;4.332;2023-08-12T13:40:30;5.90;;;1.95;;
13493;SDS011;6819;50.886;4.332;2023-08-12T13:42:56;4.80;;;1.95;;
13493;SDS011;6819;50.886;4.332;2023-08-12T13:45:22;4.30;;;1.77;;
13493;SDS011;6819;50.886;4.332;2023-08-12T13:47:49;6.57;;;2.20;;
13493;SDS011;6819;50.886;4.332;2023-08-12T13:50:16;4.75;;;1.70;;
13493;SDS011;6819;50.886;4.332;2023-08-12T13:52:42;5.88;;;2.28;;
13493;SDS011;6819;50.886;4.332;2023-08-12T13:55:08;6.57;;;2.00;;
13493;SDS011;6819;50.886;4.332;2023-08-12T13:57:35;5.85;;;2.10;;
13493;SDS011;6819;50.886;4.332;2023-08-12T14:00:01;5.85;;;1.98;;
13493;SDS011;6819;50.886;4.332;2023-08-12T14:02:27;4.50;;;2.05;;
13493;SDS011;6819;50.886;4.332;2023-08-12T14:04:54;4.70;;;1.80;;
13493;SDS011;6819;50.886;4.332;2023-08-12T14:07:20;4.00;;;1.58;;
13493;SDS011;6819;50.886;4.332;2023-08-12T14:09:46;5.15;;;1.75;;
13493;SDS011;6819;50.886;4.332;2023-08-12T14:12:12;5.30;;;1.90;;
13493;SDS011;6819;50.886;4.332;2023-08-12T14:14:38;4.30;;;1.70;;
13493;SDS011;6819;50.886;4.332;2023-08-12T14:17:05;9.43;;;1.95;;
13493;SDS011;6819;50.886;4.332;2023-08-12T14:19:31;8.35;;;2.00;;
13493;SDS011;6819;50.886;4.332;2023-08-12T14:21:57;5.88;;;2.10;;
13493;SDS011;6819;50.886;4.332;2023-08-12T14:24:23;4.53;;;1.80;;
13493;SDS011;6819;50.886;4.332;2023-08-12T14:26:49;5.32;;;1.65;;
13493;SDS011;6819;50.886;4.332;2023-08-12T14:29:15;5.25;;;1.83;;
13493;SDS011;6819;50.886;4.332;2023-08-12T14:31:41;5.30;;;1.90;;
13493;SDS011;6819;50.886;4.332;2023-08-12T14:34:07;3.75;;;1.50;;
13493;SDS011;6819;50.886;4.332;2023-08-12T14:36:33;5.95;;;2.42;;
13493;SDS011;6819;50.886;4.332;2023-08-12T14:39:01;5.05;;;1.60;;
13493;SDS011;6819;50.886;4.332;2023-08-12T14:41:27;4.63;;;1.75;;
13493;SDS011;6819;50.886;4.332;2023-08-12T14:43:53;5.13;;;2.35;;
13493;SDS011;6819;50.886;4.332;2023-08-12T14:46:19;6.22;;;2.25;;
13493;SDS011;6819;50.886;4.332;2023-08-12T14:48:45;9.45;;;2.40;;
13493;SDS011;6819;50.886;4.332;2023-08-12T14:51:11;4.00;;;1.67;;
13493;SDS011;6819;50.886;4.332;2023-08-12T14:53:37;5.45;;;2.08;;
13493;SDS011;6819;50.886;4.332;2023-08-12T14:56:03;4.57;;;1.95;;
13493;SDS011;6819;50.886;4.332;2023-08-12T14:58:29;3.35;;;1.92;;
13493;SDS011;6819;50.886;4.332;2023-08-12T15:00:55;6.90;;;1.83;;
13493;SDS011;6819;50.886;4.332;2023-08-12T15:03:21;5.60;;;2.15;;